createdAt,value
2022-10-24T00:01:43.605Z,9.30
2022-10-24T00:04:11.953Z,8.41
2022-10-24T00:06:41.424Z,8.73
2022-10-24T00:09:09.918Z,8.98
2022-10-24T00:11:38.830Z,9.24
2022-10-24T00:14:07.761Z,9.49
2022-10-24T00:16:36.132Z,9.37
2022-10-24T00:19:04.511Z,9.35
2022-10-24T00:21:32.979Z,9.43
2022-10-24T00:24:01.353Z,9.41
2022-10-24T00:26:30.559Z,9.34
2022-10-24T00:29:02.393Z,9.25
2022-10-24T00:31:30.872Z,9.22
2022-10-24T00:34:00.615Z,9.37
2022-10-24T00:36:29.080Z,9.29
2022-10-24T00:38:57.444Z,9.35
2022-10-24T00:41:35.051Z,9.34
2022-10-24T00:44:28.287Z,9.43
2022-10-24T00:47:09.975Z,8.42
2022-10-24T00:49:47.083Z,8.06
2022-10-24T00:52:17.107Z,8.30
2022-10-24T00:54:45.631Z,8.53
2022-10-24T00:57:20.504Z,8.51
2022-10-24T00:59:51.863Z,8.76
2022-10-24T01:02:22.092Z,8.78
2022-10-24T01:04:50.462Z,8.53
2022-10-24T01:07:45.069Z,8.76
2022-10-24T01:10:22.546Z,8.43
2022-10-24T01:13:03.254Z,8.43
2022-10-24T01:15:35.110Z,8.28
2022-10-24T01:18:07.664Z,8.69
2022-10-24T01:20:57.549Z,8.81
2022-10-24T01:23:51.911Z,8.72
2022-10-24T01:26:40.496Z,8.88
2022-10-24T01:29:29.887Z,8.09
2022-10-24T01:32:06.900Z,8.01
2022-10-24T01:34:55.975Z,8.46
2022-10-24T01:37:30.083Z,7.76
2022-10-24T01:40:02.936Z,7.41
2022-10-24T01:42:31.616Z,7.48
2022-10-24T01:45:00.228Z,7.54
2022-10-24T01:47:31.213Z,7.24
2022-10-24T01:50:01.955Z,6.93
2022-10-24T01:52:33.113Z,7.23
2022-10-24T01:55:01.816Z,7.43
2022-10-24T01:57:31.719Z,7.76
2022-10-24T02:00:00.095Z,7.83
2022-10-24T02:02:29.620Z,7.97
2022-10-24T02:05:06.514Z,8.11
2022-10-24T02:07:34.916Z,8.07
2022-10-24T02:10:08.751Z,8.07
2022-10-24T02:12:38.939Z,8.15
2022-10-24T02:15:20.515Z,8.34
2022-10-24T02:17:48.840Z,8.40
2022-10-24T02:20:17.757Z,8.35
2022-10-24T02:23:43.755Z,8.29
2022-10-24T02:26:19.162Z,8.28
2022-10-24T02:28:48.098Z,8.60
2022-10-24T02:31:18.748Z,8.49
2022-10-24T02:33:47.258Z,8.63
2022-10-24T02:36:17.722Z,8.72
2022-10-24T02:38:46.342Z,8.85
2022-10-24T02:41:17.224Z,8.73
2022-10-24T02:43:46.202Z,8.76
2022-10-24T02:46:14.560Z,8.42
2022-10-24T02:48:45.416Z,8.47
2022-10-24T02:51:14.722Z,8.74
2022-10-24T02:53:43.782Z,8.36
2022-10-24T02:56:12.155Z,8.41
2022-10-24T02:58:40.489Z,8.43
2022-10-24T03:01:09.929Z,8.17
2022-10-24T03:03:38.392Z,8.38
2022-10-24T03:06:07.083Z,8.45
2022-10-24T03:08:35.421Z,8.06
2022-10-24T03:11:03.806Z,8.39
2022-10-24T03:13:33.267Z,7.30
2022-10-24T03:16:01.680Z,7.55
2022-10-24T03:18:29.964Z,7.63
2022-10-24T03:20:58.318Z,7.30
2022-10-24T03:23:29.489Z,7.99
2022-10-24T03:25:58.264Z,8.04
2022-10-24T03:28:26.619Z,7.95
2022-10-24T03:30:57.179Z,7.99
2022-10-24T03:33:26.182Z,7.71
2022-10-24T03:35:54.728Z,7.47
2022-10-24T03:38:23.308Z,7.69
2022-10-24T03:40:51.828Z,7.44
2022-10-24T03:43:20.453Z,7.89
2022-10-24T03:45:48.763Z,7.81
2022-10-24T03:48:17.167Z,8.15
2022-10-24T03:50:45.435Z,7.48
2022-10-24T03:53:13.758Z,7.97
2022-10-24T03:55:42.086Z,7.86
2022-10-24T03:58:10.507Z,7.38
2022-10-24T04:00:40.858Z,8.00
2022-10-24T04:03:10.059Z,8.25
2022-10-24T04:08:08.000Z,8.27
2022-10-24T04:10:36.414Z,8.08
2022-10-24T04:13:04.850Z,8.31
2022-10-24T04:15:33.173Z,8.06
2022-10-24T04:18:01.509Z,7.52
2022-10-24T04:20:30.690Z,8.09
2022-10-24T04:23:01.161Z,8.32
2022-10-24T04:25:32.170Z,8.02
2022-10-24T04:28:00.587Z,8.12
2022-10-24T04:30:29.833Z,8.03
2022-10-24T04:32:58.920Z,8.24
2022-10-24T04:35:27.350Z,8.30
2022-10-24T04:37:55.769Z,8.27
2022-10-24T04:40:24.216Z,8.35
2022-10-24T04:42:52.592Z,8.37
2022-10-24T04:45:21.011Z,8.41
2022-10-24T04:47:49.351Z,8.52
2022-10-24T04:50:18.462Z,8.45
2022-10-24T04:52:48.142Z,8.55
2022-10-24T04:55:16.647Z,8.51
2022-10-24T04:57:45.345Z,8.41
2022-10-24T05:00:14.383Z,8.51
2022-10-24T05:02:42.836Z,8.58
2022-10-24T05:05:11.378Z,8.72
2022-10-24T05:07:39.850Z,8.64
2022-10-24T05:10:08.680Z,8.63
2022-10-24T05:12:37.127Z,8.68
2022-10-24T05:15:06.335Z,8.72
2022-10-24T05:17:34.748Z,8.77
2022-10-24T05:20:04.477Z,8.93
2022-10-24T05:22:33.490Z,8.96
2022-10-24T05:25:01.927Z,8.98
2022-10-24T05:27:30.263Z,9.01
2022-10-24T05:29:59.334Z,8.99
2022-10-24T05:32:27.704Z,8.98
2022-10-24T05:34:56.094Z,9.08
2022-10-24T05:37:24.689Z,8.98
2022-10-24T05:39:53.181Z,8.75
2022-10-24T05:42:22.201Z,9.02
2022-10-24T05:44:50.578Z,9.06
2022-10-24T05:47:19.286Z,8.51
2022-10-24T05:49:47.659Z,8.56
2022-10-24T05:52:16.621Z,8.72
2022-10-24T05:54:55.152Z,9.08
2022-10-24T05:57:31.314Z,8.78
2022-10-24T05:59:59.747Z,9.15
2022-10-24T06:02:28.969Z,9.76
2022-10-24T06:04:59.161Z,10.34
2022-10-24T06:07:27.668Z,10.90
2022-10-24T06:09:56.115Z,11.32
2022-10-24T06:12:24.836Z,11.89
2022-10-24T06:14:57.849Z,12.26
2022-10-24T06:17:26.552Z,12.37
2022-10-24T06:19:54.862Z,12.74
2022-10-24T06:22:28.103Z,12.95
2022-10-24T06:24:56.794Z,12.94
2022-10-24T06:27:26.507Z,13.22
2022-10-24T06:29:54.919Z,13.34
2022-10-24T06:32:23.956Z,13.64
2022-10-24T06:34:53.477Z,14.02
2022-10-24T06:37:21.904Z,14.82
2022-10-24T06:39:51.325Z,15.62
2022-10-24T06:42:19.810Z,16.46
2022-10-24T06:44:48.353Z,17.13
2022-10-24T06:47:16.834Z,17.66
2022-10-24T06:49:46.250Z,17.65
2022-10-24T06:52:15.295Z,18.00
2022-10-24T06:54:44.581Z,18.34
2022-10-24T06:57:13.010Z,19.07
2022-10-24T06:59:42.021Z,19.74
2022-10-24T07:02:15.424Z,20.20
2022-10-24T07:04:43.872Z,20.61
2022-10-24T07:07:16.580Z,20.95
2022-10-24T07:09:45.103Z,21.18
2022-10-24T07:12:13.532Z,21.74
2022-10-24T07:14:42.646Z,22.19
2022-10-24T07:17:11.020Z,22.47
2022-10-24T07:19:39.431Z,22.08
2022-10-24T07:22:07.940Z,21.58
2022-10-24T07:24:36.423Z,21.80
2022-10-24T07:27:04.750Z,21.86
2022-10-24T07:29:33.165Z,21.89
2022-10-24T07:32:02.376Z,22.16
2022-10-24T07:34:30.727Z,22.60
2022-10-24T07:37:00.912Z,23.15
2022-10-24T07:39:30.494Z,23.38
2022-10-24T07:41:59.012Z,24.09
2022-10-24T07:44:27.478Z,24.61
2022-10-24T07:46:55.918Z,25.26
2022-10-24T07:49:24.356Z,25.50
2022-10-24T07:51:53.352Z,25.65
2022-10-24T07:56:55.763Z,26.72
2022-10-24T07:59:41.361Z,27.18
2022-10-24T08:02:14.280Z,27.01
2022-10-24T08:04:42.738Z,27.42
2022-10-24T08:07:14.886Z,27.69
2022-10-24T08:09:46.242Z,27.50
2022-10-24T08:12:14.863Z,26.73
2022-10-24T08:14:43.642Z,26.29
2022-10-24T08:17:12.165Z,25.58
2022-10-24T08:19:44.198Z,25.00
2022-10-24T08:22:13.090Z,24.42
2022-10-24T08:24:43.717Z,24.41
2022-10-24T08:27:13.580Z,24.63
2022-10-24T08:29:42.010Z,24.39
2022-10-24T08:32:10.920Z,24.70
2022-10-24T08:34:39.489Z,24.51
2022-10-24T08:37:07.896Z,24.27
2022-10-24T08:39:36.251Z,23.43
2022-10-24T08:42:08.832Z,23.15
2022-10-24T08:44:41.650Z,22.59
2022-10-24T08:47:31.935Z,22.38
2022-10-24T08:50:05.196Z,21.72
2022-10-24T08:53:03.440Z,21.19
2022-10-24T08:55:49.157Z,19.88
2022-10-24T08:58:25.391Z,20.48
2022-10-24T09:00:58.584Z,20.33
2022-10-24T09:03:55.452Z,19.70
2022-10-24T09:06:30.662Z,20.18
2022-10-24T09:09:06.900Z,20.12
2022-10-24T09:11:44.167Z,20.80
2022-10-24T09:14:37.292Z,20.71
2022-10-24T09:17:38.242Z,20.99
2022-10-24T09:20:29.240Z,20.67
2022-10-24T09:23:04.982Z,20.77
2022-10-24T09:25:35.815Z,21.34
2022-10-24T09:28:05.388Z,21.57
2022-10-24T09:30:34.628Z,20.78
2022-10-24T09:33:13.466Z,21.00
2022-10-24T09:35:41.883Z,21.12
2022-10-24T09:38:35.828Z,21.20
2022-10-24T09:41:06.958Z,21.81
2022-10-24T09:43:40.321Z,21.63
2022-10-24T09:46:09.771Z,22.17
2022-10-24T09:48:56.685Z,22.47
2022-10-24T09:51:43.211Z,22.59
2022-10-24T09:54:20.495Z,22.53
2022-10-24T09:57:05.669Z,22.60
2022-10-24T09:59:33.984Z,22.00
2022-10-24T10:02:13.162Z,22.95
2022-10-24T10:04:42.058Z,23.01
2022-10-24T10:07:12.397Z,22.68
2022-10-24T10:09:52.666Z,23.08
2022-10-24T10:12:36.293Z,23.10
2022-10-24T10:15:19.067Z,23.70
2022-10-24T10:17:51.340Z,23.13
2022-10-24T10:20:32.788Z,23.92
2022-10-24T10:23:26.863Z,23.71
2022-10-24T10:26:20.640Z,23.41
2022-10-24T10:28:57.985Z,23.44
2022-10-24T10:31:43.975Z,23.67
2022-10-24T10:34:31.039Z,23.36
2022-10-24T10:37:19.139Z,22.98
2022-10-24T10:40:15.750Z,22.98
2022-10-24T10:43:18.723Z,23.61
2022-10-24T10:45:48.886Z,23.53
2022-10-24T10:48:38.308Z,23.15
2022-10-24T10:51:35.971Z,23.46
2022-10-24T10:54:19.581Z,23.14
2022-10-24T10:56:50.744Z,24.00
2022-10-24T10:59:54.075Z,23.15
2022-10-24T11:02:41.099Z,23.28
2022-10-24T11:05:15.350Z,23.59
2022-10-24T11:08:17.180Z,24.19
2022-10-24T11:11:08.955Z,23.49
2022-10-24T11:13:39.488Z,23.98
2022-10-24T11:16:13.539Z,24.27
2022-10-24T11:18:44.885Z,24.50
2022-10-24T11:21:18.826Z,24.35
2022-10-24T11:24:11.147Z,24.86
2022-10-24T11:26:50.756Z,24.72
2022-10-24T11:29:24.386Z,24.54
2022-10-24T11:31:58.411Z,24.42
2022-10-24T11:34:54.874Z,24.46
2022-10-24T11:37:34.206Z,25.45
2022-10-24T11:40:10.908Z,25.56
2022-10-24T11:43:10.686Z,24.42
2022-10-24T11:45:54.386Z,24.70
2022-10-24T11:49:04.277Z,24.50
2022-10-24T11:51:41.308Z,25.49
2022-10-24T11:54:17.318Z,25.61
2022-10-24T11:56:55.711Z,24.84
2022-10-24T11:59:26.962Z,24.84
2022-10-24T12:01:55.425Z,24.41
2022-10-24T12:05:00.708Z,24.59
2022-10-24T12:07:47.637Z,25.23
2022-10-24T12:10:37.897Z,24.37
2022-10-24T12:13:37.834Z,24.94
2022-10-24T12:16:39.862Z,25.11
2022-10-24T12:19:18.709Z,24.53
2022-10-24T12:21:54.971Z,24.50
2022-10-24T12:24:33.207Z,24.77
2022-10-24T12:27:03.935Z,24.90
2022-10-24T12:29:34.329Z,24.95
2022-10-24T12:32:39.679Z,25.07
2022-10-24T12:35:34.318Z,24.49
2022-10-24T12:38:03.446Z,23.87
2022-10-24T12:40:47.213Z,24.72
2022-10-24T12:43:30.693Z,24.81
2022-10-24T12:46:26.028Z,24.78
2022-10-24T12:48:57.480Z,24.89
2022-10-24T12:51:32.450Z,24.69
2022-10-24T12:54:04.921Z,25.01
2022-10-24T12:56:34.008Z,25.07
2022-10-24T12:59:04.731Z,24.97
2022-10-24T13:01:38.058Z,25.31
2022-10-24T13:04:15.753Z,25.40
2022-10-24T13:06:48.901Z,25.14
2022-10-24T13:09:32.657Z,25.28
2022-10-24T13:12:08.072Z,24.72
2022-10-24T13:14:36.784Z,24.99
2022-10-24T13:17:17.494Z,25.28
2022-10-24T13:19:46.459Z,25.28
2022-10-24T13:22:29.208Z,25.24
2022-10-24T13:24:58.307Z,25.11
2022-10-24T13:27:31.297Z,25.15
2022-10-24T13:30:01.592Z,24.99
2022-10-24T13:32:32.347Z,25.10
2022-10-24T13:35:00.987Z,24.63
2022-10-24T13:37:50.925Z,24.78
2022-10-24T13:40:32.973Z,24.96
2022-10-24T13:43:07.655Z,25.18
2022-10-24T13:45:53.050Z,24.92
2022-10-24T13:48:26.801Z,24.12
2022-10-24T13:51:11.228Z,24.81
2022-10-24T13:54:03.002Z,25.24
2022-10-24T13:56:32.369Z,25.43
2022-10-24T13:59:00.852Z,25.31
2022-10-24T14:01:36.633Z,25.35
2022-10-24T14:04:07.553Z,25.52
2022-10-24T14:06:36.042Z,25.50
2022-10-24T14:09:11.477Z,25.50
2022-10-24T14:11:53.508Z,25.45
2022-10-24T14:14:40.463Z,25.37
2022-10-24T14:17:28.799Z,25.35
2022-10-24T14:20:10.156Z,25.20
2022-10-24T14:22:41.420Z,25.35
2022-10-24T14:25:29.100Z,25.19
2022-10-24T14:28:00.419Z,24.92
2022-10-24T14:30:34.410Z,24.52
2022-10-24T14:33:15.244Z,24.51
2022-10-24T14:35:43.613Z,24.41
2022-10-24T14:38:14.131Z,24.37
2022-10-24T14:40:46.463Z,23.83
2022-10-24T14:46:12.076Z,23.78
2022-10-24T14:48:45.181Z,23.52
2022-10-24T14:51:32.778Z,23.44
2022-10-24T14:54:04.066Z,23.14
2022-10-24T14:56:36.249Z,23.14
2022-10-24T14:59:08.342Z,23.12
2022-10-24T15:01:37.002Z,23.02
2022-10-24T15:04:10.919Z,22.83
2022-10-24T15:06:40.249Z,22.88
2022-10-24T15:09:11.775Z,23.15
2022-10-24T15:12:00.041Z,23.08
2022-10-24T15:14:40.439Z,22.59
2022-10-24T15:17:18.978Z,22.49
2022-10-24T15:19:47.859Z,22.59
2022-10-24T15:22:35.859Z,22.50
2022-10-24T15:25:08.889Z,22.37
2022-10-24T15:27:41.539Z,22.03
2022-10-24T15:30:22.521Z,22.11
2022-10-24T15:32:54.040Z,21.63
2022-10-24T15:35:23.002Z,21.90
2022-10-24T15:37:58.015Z,21.94
2022-10-24T15:40:30.106Z,21.74
2022-10-24T15:42:59.178Z,21.47
2022-10-24T15:45:29.015Z,21.39
2022-10-24T15:47:57.417Z,21.39
2022-10-24T15:50:25.887Z,21.08
2022-10-24T15:52:56.407Z,20.91
2022-10-24T15:55:26.395Z,20.62
2022-10-24T15:57:55.104Z,20.59
2022-10-24T16:00:23.713Z,20.34
2022-10-24T16:02:53.562Z,20.40
2022-10-24T16:05:26.734Z,20.14
2022-10-24T16:07:59.104Z,19.82
2022-10-24T16:10:28.438Z,20.02
2022-10-24T16:12:56.750Z,19.74
2022-10-24T16:15:28.939Z,19.92
2022-10-24T16:17:59.555Z,19.76
2022-10-24T16:20:30.408Z,19.50
2022-10-24T16:22:59.817Z,19.22
2022-10-24T16:25:33.933Z,19.37
2022-10-24T16:28:04.871Z,19.31
2022-10-24T16:30:35.987Z,19.37
2022-10-24T16:33:07.418Z,18.96
2022-10-24T16:35:37.700Z,19.16
2022-10-24T16:38:08.433Z,19.03
2022-10-24T16:43:16.086Z,18.86
2022-10-24T16:45:48.696Z,18.76
2022-10-24T16:48:18.068Z,18.30
2022-10-24T16:50:47.382Z,18.23
2022-10-24T16:53:19.978Z,18.38
2022-10-24T16:55:50.992Z,18.23
2022-10-24T16:58:20.844Z,18.55
2022-10-24T17:00:50.887Z,18.34
2022-10-24T17:03:24.533Z,18.30
2022-10-24T17:05:54.538Z,17.62
2022-10-24T17:08:26.999Z,17.56
2022-10-24T17:10:56.027Z,17.78
2022-10-24T17:13:28.884Z,17.79
2022-10-24T17:16:04.787Z,17.29
2022-10-24T17:18:36.196Z,17.47
2022-10-24T17:21:09.564Z,17.18
2022-10-24T17:23:38.424Z,17.32
2022-10-24T17:26:16.288Z,17.67
2022-10-24T17:28:45.527Z,17.52
2022-10-24T17:31:18.769Z,17.52
2022-10-24T17:34:01.353Z,17.63
2022-10-24T17:36:42.874Z,17.17
2022-10-24T17:42:16.415Z,16.49
2022-10-24T17:44:50.198Z,16.81
2022-10-24T17:47:23.346Z,16.66
2022-10-24T17:49:55.471Z,16.74
2022-10-24T17:52:28.020Z,16.81
2022-10-24T17:54:59.851Z,16.43
2022-10-24T17:57:33.502Z,15.79
2022-10-24T18:00:04.063Z,16.02
2022-10-24T18:02:56.909Z,16.32
2022-10-24T18:05:54.216Z,16.25
2022-10-24T18:08:26.327Z,16.49
2022-10-24T18:11:09.775Z,16.15
2022-10-24T18:13:42.736Z,16.37
2022-10-24T18:16:16.325Z,16.20
2022-10-24T18:18:51.047Z,16.16
2022-10-24T18:21:30.752Z,16.42
2022-10-24T18:24:10.008Z,16.56
2022-10-24T18:26:43.306Z,16.63
2022-10-24T18:29:13.884Z,16.43
2022-10-24T18:31:48.232Z,16.17
2022-10-24T18:34:19.946Z,16.50
2022-10-24T18:36:48.370Z,16.51
2022-10-24T18:39:26.444Z,16.42
2022-10-24T18:42:26.047Z,16.27
2022-10-24T18:44:59.776Z,15.39
2022-10-24T18:47:33.949Z,16.02
2022-10-24T18:50:03.113Z,15.90
2022-10-24T18:52:50.635Z,16.09
2022-10-24T18:55:25.521Z,15.57
2022-10-24T18:57:54.305Z,15.14
2022-10-24T19:00:28.812Z,15.58
2022-10-24T19:03:28.596Z,15.62
2022-10-24T19:06:23.253Z,15.41
2022-10-24T19:08:51.981Z,14.96
2022-10-24T19:11:21.465Z,14.65
2022-10-24T19:13:50.184Z,14.78
2022-10-24T19:16:24.112Z,15.04
2022-10-24T19:18:58.171Z,15.31
2022-10-24T19:21:30.528Z,14.68
2022-10-24T19:23:59.752Z,14.61
2022-10-24T19:26:29.914Z,14.21
2022-10-24T19:29:01.121Z,14.07
2022-10-24T19:31:35.158Z,14.55
2022-10-24T19:34:05.980Z,14.64
2022-10-24T19:36:35.642Z,14.22
2022-10-24T19:39:05.883Z,14.27
2022-10-24T19:41:36.896Z,14.30
2022-10-24T19:44:07.885Z,13.85
2022-10-24T19:46:37.635Z,14.15
2022-10-24T19:49:06.180Z,14.03
2022-10-24T19:51:35.959Z,13.70
2022-10-24T19:54:08.343Z,14.01
2022-10-24T19:56:45.364Z,13.33
2022-10-24T19:59:14.760Z,13.93
2022-10-24T20:01:45.976Z,14.11
2022-10-24T20:04:15.497Z,13.49
2022-10-24T20:06:48.253Z,13.38
2022-10-24T20:09:19.638Z,13.60
2022-10-24T20:11:48.817Z,13.03
2022-10-24T20:14:17.608Z,13.78
2022-10-24T20:16:45.974Z,13.39
2022-10-24T20:19:14.406Z,13.20
2022-10-24T20:21:43.459Z,13.35
2022-10-24T20:24:13.637Z,13.43
2022-10-24T20:26:42.261Z,13.58
2022-10-24T20:29:15.120Z,13.36
2022-10-24T20:31:46.060Z,13.14
2022-10-24T20:34:14.642Z,12.71
2022-10-24T20:36:48.846Z,13.32
2022-10-24T20:39:21.414Z,13.31
2022-10-24T20:41:58.626Z,12.79
2022-10-24T20:44:27.125Z,12.65
2022-10-24T20:46:56.934Z,13.25
2022-10-24T20:49:26.000Z,13.17
2022-10-24T20:51:55.177Z,13.17
2022-10-24T20:54:23.706Z,13.16
2022-10-24T20:56:53.698Z,13.02
2022-10-24T20:59:23.526Z,13.14
2022-10-24T21:01:52.690Z,12.49
2022-10-24T21:04:21.239Z,12.77
2022-10-24T21:06:49.685Z,12.96
2022-10-24T21:09:18.134Z,13.08
2022-10-24T21:11:47.174Z,12.91
2022-10-24T21:14:16.547Z,12.96
2022-10-24T21:16:45.020Z,12.46
2022-10-24T21:19:13.524Z,12.45
2022-10-24T21:21:42.413Z,11.86
2022-10-24T21:24:18.212Z,12.34
2022-10-24T21:26:46.682Z,12.19
2022-10-24T21:29:32.121Z,11.85
2022-10-24T21:32:00.972Z,12.32
2022-10-24T21:34:31.792Z,11.93
2022-10-24T21:37:03.885Z,12.19
2022-10-24T21:39:32.324Z,12.08
2022-10-24T21:42:00.761Z,12.06
2022-10-24T21:44:29.262Z,11.89
2022-10-24T21:46:57.665Z,12.30
2022-10-24T21:49:25.997Z,12.07
2022-10-24T21:51:54.374Z,11.29
2022-10-24T21:54:23.908Z,11.92
2022-10-24T21:56:52.928Z,11.89
2022-10-24T21:59:21.460Z,11.11
2022-10-24T22:01:50.737Z,11.39
2022-10-24T22:04:20.639Z,11.60
2022-10-24T22:06:48.991Z,11.38
2022-10-24T22:09:19.373Z,11.88
2022-10-24T22:11:47.739Z,11.05
2022-10-24T22:14:16.494Z,10.95
2022-10-24T22:16:46.012Z,11.33
2022-10-24T22:19:14.517Z,11.21
2022-10-24T22:21:47.764Z,11.43
2022-10-24T22:24:25.077Z,10.78
2022-10-24T22:26:53.808Z,11.04
2022-10-24T22:29:23.070Z,10.65
2022-10-24T22:31:52.275Z,11.09
2022-10-24T22:34:23.630Z,10.54
2022-10-24T22:37:15.989Z,11.13
2022-10-24T22:39:44.615Z,10.75
2022-10-24T22:42:15.959Z,10.90
2022-10-24T22:44:46.463Z,11.22
2022-10-24T22:47:43.843Z,11.02
2022-10-24T22:50:45.849Z,10.53
2022-10-24T22:53:15.138Z,11.01
2022-10-24T22:56:11.692Z,11.05
2022-10-24T22:58:41.512Z,11.20
2022-10-24T23:01:27.826Z,10.43
2022-10-24T23:04:13.421Z,10.58
2022-10-24T23:07:02.972Z,10.86
2022-10-24T23:09:31.271Z,11.06
2022-10-24T23:11:59.791Z,10.07
2022-10-24T23:14:29.286Z,10.81
2022-10-24T23:16:59.202Z,10.90
2022-10-24T23:19:31.816Z,11.17
2022-10-24T23:22:16.596Z,10.97
2022-10-24T23:24:45.323Z,10.58
2022-10-24T23:27:38.290Z,10.76
2022-10-24T23:30:18.389Z,10.06
2022-10-24T23:32:47.757Z,10.70
2022-10-24T23:35:18.713Z,10.42
2022-10-24T23:37:51.226Z,10.64
2022-10-24T23:40:34.823Z,10.05
2022-10-24T23:43:04.490Z,9.89
2022-10-24T23:45:36.045Z,10.70
2022-10-24T23:48:43.248Z,10.56
2022-10-24T23:51:16.757Z,10.85
2022-10-24T23:53:55.381Z,10.56
2022-10-24T23:56:28.634Z,10.50
2022-10-24T23:58:57.050Z,9.74
